Time;durP1;ratioP1;P1;durP2;ratioP2;P2;SDS_P1;SDS_P2;PMS_P1;PMS_P2;Temp;Humidity;BMP_temperature;BMP_pressure;BME280_temperature;BME280_humidity;BME280_pressure;Samples;Min_cycle;Max_cycle;Signal;HPM_P1;HPM_P2
2023/07/30 00:00:34;;;;;;;6.17;3.87;;;18.90;99.90;;;;;;5079497;28;20164;-47
2023/07/30 00:03:03;;;;;;;6.80;4.00;;;18.80;99.90;;;;;;5079341;28;20670;-47
2023/07/30 00:05:29;;;;;;;4.50;3.90;;;18.70;99.90;;;;;;5096775;28;20168;-50
2023/07/30 00:07:54;;;;;;;4.37;3.70;;;18.50;99.90;;;;;;5078745;28;20249;-45
2023/07/30 00:10:20;;;;;;;5.23;4.13;;;18.40;99.90;;;;;;5095815;28;20223;-50
2023/07/30 00:12:46;;;;;;;5.67;4.20;;;18.30;99.90;;;;;;5078989;28;20164;-46
2023/07/30 00:15:12;;;;;;;4.57;4.10;;;18.20;99.90;;;;;;5091958;28;20215;-46
2023/07/30 00:17:38;;;;;;;5.53;4.50;;;18.30;99.90;;;;;;5089513;28;20275;-49
2023/07/30 00:20:05;;;;;;;4.43;4.03;;;18.40;99.90;;;;;;5093558;28;20315;-46
2023/07/30 00:22:31;;;;;;;4.70;4.03;;;18.40;99.90;;;;;;5097202;28;20176;-47
2023/07/30 00:24:56;;;;;;;5.17;4.37;;;18.40;99.90;;;;;;5079729;28;20225;-46
2023/07/30 00:27:22;;;;;;;4.47;4.03;;;18.50;99.90;;;;;;5079616;28;20172;-45
2023/07/30 00:29:47;;;;;;;4.27;3.80;;;18.40;99.90;;;;;;5097093;28;20555;-45
2023/07/30 00:32:15;;;;;;;3.90;3.37;;;18.40;99.90;;;;;;5079188;28;20198;-46
2023/07/30 00:34:41;;;;;;;4.07;3.30;;;18.30;99.90;;;;;;5078843;28;20228;-46
2023/07/30 00:37:06;;;;;;;3.80;3.43;;;18.30;99.90;;;;;;5078866;28;20187;-52
2023/07/30 00:39:32;;;;;;;4.07;3.57;;;18.30;99.90;;;;;;5078102;28;20172;-52
2023/07/30 00:41:57;;;;;;;4.60;3.57;;;18.40;99.90;;;;;;5078827;28;20172;-46
2023/07/30 00:44:23;;;;;;;4.33;3.27;;;18.40;99.90;;;;;;5078306;28;20168;-51
2023/07/30 00:46:49;;;;;;;4.73;3.13;;;18.40;99.90;;;;;;5078512;28;20332;-47
2023/07/30 00:49:15;;;;;;;3.17;2.87;;;18.40;99.90;;;;;;5078192;28;20560;-47
2023/07/30 00:51:41;;;;;;;3.00;2.80;;;18.40;99.90;;;;;;5078602;28;20198;-49
2023/07/30 00:54:07;;;;;;;3.87;3.07;;;18.50;99.90;;;;;;5078270;28;20328;-46
2023/07/30 00:56:32;;;;;;;2.80;2.60;;;18.60;99.90;;;;;;5095835;28;20282;-46
2023/07/30 00:58:58;;;;;;;3.20;2.80;;;18.70;99.90;;;;;;5078728;28;20168;-46
2023/07/30 01:01:24;;;;;;;5.27;2.97;;;18.70;99.90;;;;;;5079056;28;20520;-48
2023/07/30 01:03:50;;;;;;;3.60;2.53;;;18.70;99.90;;;;;;5078946;28;20179;-50
2023/07/30 01:06:16;;;;;;;6.37;3.20;;;18.80;99.90;;;;;;5078869;28;20253;-49
2023/07/30 01:08:42;;;;;;;4.47;3.10;;;18.90;99.90;;;;;;5096100;28;20220;-50
2023/07/30 01:11:08;;;;;;;3.93;3.30;;;18.90;99.90;;;;;;5079480;28;20202;-49
2023/07/30 01:13:36;;;;;;;3.63;3.17;;;19.00;99.90;;;;;;5079500;28;20810;-46
2023/07/30 01:16:03;;;;;;;8.80;3.20;;;19.00;99.90;;;;;;5078432;28;20180;-52
2023/07/30 01:18:29;;;;;;;8.57;3.93;;;19.00;99.90;;;;;;5078238;28;20175;-51
2023/07/30 01:20:59;;;;;;;6.23;4.13;;;19.00;99.90;;;;;;5079123;28;20164;-47
2023/07/30 01:23:25;;;;;;;4.97;3.33;;;18.90;99.90;;;;;;5079792;28;20270;-48
2023/07/30 01:25:59;;;;;;;5.77;3.77;;;18.70;99.90;;;;;;5078980;28;20168;-48
2023/07/30 01:28:27;;;;;;;5.40;3.17;;;18.60;99.90;;;;;;5079218;28;20217;-47
2023/07/30 01:30:54;;;;;;;4.67;3.13;;;18.60;99.90;;;;;;5096906;28;20164;-50
2023/07/30 01:33:20;;;;;;;4.57;3.50;;;18.70;99.90;;;;;;5079366;28;20171;-48
2023/07/30 01:35:45;;;;;;;4.50;3.53;;;18.70;99.90;;;;;;5112440;28;20245;-45
2023/07/30 01:38:12;;;;;;;6.23;3.33;;;18.60;99.90;;;;;;5117037;28;20567;-46
2023/07/30 01:40:38;;;;;;;5.57;3.90;;;18.60;99.90;;;;;;5099357;28;20167;-45
2023/07/30 01:43:03;;;;;;;4.57;3.67;;;18.50;99.90;;;;;;5098488;28;20629;-47
2023/07/30 01:45:30;;;;;;;6.10;4.03;;;18.50;99.90;;;;;;5099199;28;20168;-45
2023/07/30 01:47:56;;;;;;;4.60;4.10;;;18.50;99.90;;;;;;5098921;28;20190;-52
2023/07/30 01:50:21;;;;;;;4.90;4.37;;;18.40;99.90;;;;;;5099065;28;20650;-48
2023/07/30 01:52:47;;;;;;;7.20;4.23;;;18.40;99.90;;;;;;5099057;28;20222;-50
2023/07/30 01:55:13;;;;;;;7.40;4.70;;;18.30;99.90;;;;;;5098779;28;20195;-47
2023/07/30 01:57:38;;;;;;;5.10;4.10;;;18.20;99.90;;;;;;5116581;28;20456;-47
2023/07/30 02:00:05;;;;;;;4.00;3.60;;;18.20;99.90;;;;;;5099396;28;20147;-48
2023/07/30 02:02:30;;;;;;;4.77;4.20;;;18.20;99.90;;;;;;5099483;28;20159;-47
2023/07/30 02:04:56;;;;;;;6.63;4.00;;;18.20;99.90;;;;;;5098865;28;20183;-46
2023/07/30 02:07:22;;;;;;;4.43;4.03;;;18.20;99.90;;;;;;5098962;28;20183;-48
2023/07/30 02:09:47;;;;;;;4.77;4.13;;;18.20;99.90;;;;;;5117165;28;20175;-46
2023/07/30 02:12:13;;;;;;;6.97;4.23;;;18.30;99.90;;;;;;5102594;28;20170;-46
2023/07/30 02:14:38;;;;;;;5.07;4.20;;;18.30;99.90;;;;;;5098702;28;20585;-47
2023/07/30 02:17:04;;;;;;;4.30;3.70;;;18.20;99.90;;;;;;5097944;28;20171;-46
2023/07/30 02:19:30;;;;;;;4.87;4.43;;;18.20;99.90;;;;;;5117660;28;20196;-50
2023/07/30 02:21:55;;;;;;;6.37;4.37;;;18.20;99.90;;;;;;5102425;28;20167;-52
2023/07/30 02:24:21;;;;;;;7.23;4.10;;;18.20;99.90;;;;;;5100946;28;20505;-46
2023/07/30 02:26:48;;;;;;;5.40;4.67;;;18.20;99.90;;;;;;5102142;28;20480;-50
2023/07/30 02:29:14;;;;;;;6.47;4.50;;;18.10;99.90;;;;;;5120643;28;20181;-50
2023/07/30 02:31:39;;;;;;;6.03;4.60;;;18.10;99.90;;;;;;5102848;28;20458;-51
2023/07/30 02:34:06;;;;;;;5.00;4.40;;;18.10;99.90;;;;;;5103043;28;20171;-52
2023/07/30 02:36:32;;;;;;;4.90;4.40;;;18.00;99.90;;;;;;5102835;28;20260;-46
2023/07/30 02:38:58;;;;;;;5.60;5.00;;;18.00;99.90;;;;;;5121445;28;20237;-46
2023/07/30 02:41:23;;;;;;;5.77;4.67;;;18.00;99.90;;;;;;5102858;28;20201;-48
2023/07/30 02:44:13;;;;;;;7.33;4.93;;;18.00;99.90;;;;;;5102378;28;20566;-48
2023/07/30 02:46:39;;;;;;;6.37;5.40;;;18.00;99.90;;;;;;5056096;28;20694;-50
2023/07/30 02:49:04;;;;;;;5.67;5.03;;;18.00;99.90;;;;;;5101999;28;20543;-49
2023/07/30 02:51:30;;;;;;;5.27;4.77;;;18.10;99.90;;;;;;5101996;28;20167;-47
2023/07/30 02:54:04;;;;;;;5.07;4.50;;;18.10;99.90;;;;;;5101661;28;20202;-46
2023/07/30 02:56:30;;;;;;;5.87;4.83;;;18.20;99.90;;;;;;5101831;28;20203;-47
2023/07/30 02:58:56;;;;;;;6.83;5.00;;;18.20;99.90;;;;;;5102491;28;20475;-47
2023/07/30 03:01:22;;;;;;;5.87;5.37;;;18.30;99.90;;;;;;5101756;28;20181;-47
2023/07/30 03:03:48;;;;;;;6.87;5.20;;;18.20;99.90;;;;;;5101496;28;20242;-47
2023/07/30 03:06:14;;;;;;;7.00;5.27;;;18.30;99.90;;;;;;5102224;28;20215;-49
2023/07/30 03:08:39;;;;;;;6.93;5.40;;;18.30;99.90;;;;;;5102527;28;20176;-47
2023/07/30 03:11:05;;;;;;;13.20;5.63;;;18.20;99.90;;;;;;5102217;28;20178;-51
2023/07/30 03:13:31;;;;;;;5.97;5.37;;;18.20;99.90;;;;;;5120016;28;20171;-51
2023/07/30 03:15:56;;;;;;;9.33;5.47;;;18.20;99.90;;;;;;5102195;28;20226;-48
2023/07/30 03:18:22;;;;;;;6.33;5.73;;;18.20;99.90;;;;;;5100930;28;20163;-51
2023/07/30 03:20:47;;;;;;;5.87;5.27;;;18.20;99.90;;;;;;5101977;28;20178;-50
2023/07/30 03:23:13;;;;;;;6.23;5.30;;;18.10;99.90;;;;;;5102728;28;20252;-48
2023/07/30 03:25:39;;;;;;;8.43;5.27;;;18.10;99.90;;;;;;5102310;28;20179;-49
2023/07/30 03:28:05;;;;;;;8.60;6.13;;;18.10;99.90;;;;;;5101518;28;20471;-51
2023/07/30 03:30:30;;;;;;;6.63;6.03;;;18.10;99.90;;;;;;5101197;28;20201;-47
2023/07/30 03:32:56;;;;;;;6.77;5.80;;;18.10;99.90;;;;;;5101207;28;20179;-46
2023/07/30 03:35:22;;;;;;;6.07;5.07;;;18.10;99.90;;;;;;5089716;28;20816;-50
2023/07/30 03:37:47;;;;;;;7.27;5.40;;;18.10;99.90;;;;;;5080807;28;20262;-48
2023/07/30 03:40:13;;;;;;;7.80;5.47;;;18.00;99.90;;;;;;5081183;28;20178;-49
2023/07/30 03:42:38;;;;;;;8.53;5.93;;;18.00;99.90;;;;;;5098697;28;20168;-46
2023/07/30 03:45:29;;;;;;;6.97;6.03;;;18.00;99.90;;;;;;5081361;28;20172;-53
2023/07/30 03:47:55;;;;;;;7.87;5.67;;;18.00;99.90;;;;;;5081049;28;20561;-47
2023/07/30 03:50:21;;;;;;;7.33;5.60;;;18.00;99.90;;;;;;5080842;28;20271;-46
2023/07/30 03:52:47;;;;;;;5.93;5.40;;;18.00;99.90;;;;;;5081227;28;20176;-52
2023/07/30 03:55:12;;;;;;;7.67;6.27;;;18.00;99.90;;;;;;5081031;28;20299;-49
2023/07/30 03:57:38;;;;;;;8.50;6.23;;;17.90;99.90;;;;;;5098347;28;20164;-48
2023/07/30 04:00:04;;;;;;;6.60;4.70;;;17.90;99.90;;;;;;5080228;28;20489;-49
2023/07/30 04:02:30;;;;;;;6.40;5.80;;;17.90;99.90;;;;;;5080456;28;20183;-46
2023/07/30 04:04:56;;;;;;;7.00;5.23;;;18.00;99.90;;;;;;5080503;28;20180;-45
2023/07/30 04:07:21;;;;;;;13.67;5.63;;;18.00;99.90;;;;;;5079578;28;20184;-49
2023/07/30 04:09:47;;;;;;;7.43;5.37;;;18.10;99.90;;;;;;5079928;28;20198;-50
2023/07/30 04:12:12;;;;;;;8.33;6.00;;;18.00;99.90;;;;;;5080601;28;20179;-50
2023/07/30 04:14:39;;;;;;;7.60;5.23;;;18.00;99.90;;;;;;5080110;28;20172;-49
2023/07/30 04:17:05;;;;;;;7.30;4.70;;;18.00;99.90;;;;;;5098237;28;20179;-46
2023/07/30 04:19:30;;;;;;;7.97;4.80;;;18.00;99.90;;;;;;5097997;28;20164;-48
2023/07/30 04:21:56;;;;;;;8.27;5.17;;;18.00;99.90;;;;;;5097972;28;20173;-47
2023/07/30 04:24:21;;;;;;;6.87;4.57;;;18.00;99.90;;;;;;5079574;28;20210;-49
2023/07/30 04:26:47;;;;;;;7.07;5.17;;;18.00;99.90;;;;;;5079226;28;20564;-51
2023/07/30 04:29:14;;;;;;;10.20;5.80;;;18.00;99.90;;;;;;5080459;28;20179;-51
2023/07/30 04:31:39;;;;;;;10.13;5.30;;;18.00;99.90;;;;;;5097339;28;20160;-51
2023/07/30 04:34:07;;;;;;;11.13;5.30;;;18.00;99.90;;;;;;5097992;28;20160;-49
2023/07/30 04:36:32;;;;;;;5.13;4.20;;;18.00;99.90;;;;;;5099483;28;20231;-49
2023/07/30 04:38:58;;;;;;;7.17;4.50;;;18.00;99.90;;;;;;5099638;28;20203;-50
2023/07/30 04:41:24;;;;;;;9.40;4.97;;;18.00;99.90;;;;;;5100859;28;20259;-49
2023/07/30 04:43:49;;;;;;;8.27;4.30;;;18.00;99.90;;;;;;5101126;28;20254;-46
2023/07/30 04:46:15;;;;;;;7.27;4.70;;;18.10;99.90;;;;;;5118230;28;20151;-47
2023/07/30 04:48:41;;;;;;;9.33;4.87;;;18.00;99.90;;;;;;5100444;28;20217;-48
2023/07/30 04:51:07;;;;;;;6.53;4.73;;;18.00;99.90;;;;;;5100709;28;20186;-48
2023/07/30 04:53:32;;;;;;;10.03;4.90;;;18.00;99.90;;;;;;5117626;28;20206;-47
2023/07/30 04:55:59;;;;;;;7.50;5.23;;;18.00;99.90;;;;;;5099476;28;20462;-49
2023/07/30 04:58:24;;;;;;;9.53;5.00;;;18.00;99.90;;;;;;5097937;28;20262;-47
2023/07/30 05:00:50;;;;;;;9.27;5.37;;;18.10;99.90;;;;;;5098800;28;20254;-50
2023/07/30 05:03:15;;;;;;;10.87;5.13;;;18.00;99.90;;;;;;5099066;28;20258;-52
2023/07/30 05:05:41;;;;;;;12.97;6.13;;;18.00;99.90;;;;;;5116864;28;20516;-50
2023/07/30 05:08:07;;;;;;;8.67;5.57;;;18.00;99.90;;;;;;5099141;28;20175;-50
2023/07/30 05:10:33;;;;;;;8.27;5.00;;;18.00;99.90;;;;;;5099859;28;20175;-46
2023/07/30 05:12:59;;;;;;;11.13;5.83;;;18.00;99.90;;;;;;5117725;28;20188;-48
2023/07/30 05:15:25;;;;;;;11.40;5.23;;;17.90;99.90;;;;;;5113535;28;20202;-50
2023/07/30 05:17:50;;;;;;;11.10;5.80;;;17.90;99.90;;;;;;5115961;28;20566;-50
2023/07/30 05:20:17;;;;;;;9.17;4.93;;;18.00;99.90;;;;;;5099084;28;20167;-47
2023/07/30 05:22:43;;;;;;;6.60;4.50;;;18.00;99.90;;;;;;5099365;28;20176;-47
2023/07/30 05:25:09;;;;;;;9.77;4.80;;;18.00;99.90;;;;;;5099287;28;20194;-48
2023/07/30 05:27:36;;;;;;;9.27;5.27;;;18.00;99.90;;;;;;5099091;28;20171;-52
2023/07/30 05:30:03;;;;;;;9.80;4.97;;;18.00;99.90;;;;;;5099346;28;20256;-50
2023/07/30 05:32:30;;;;;;;10.63;5.50;;;18.00;99.90;;;;;;5099462;28;20168;-46
2023/07/30 05:34:55;;;;;;;10.27;5.07;;;18.00;99.90;;;;;;5096218;28;20669;-46
2023/07/30 05:37:21;;;;;;;9.47;4.97;;;18.00;99.90;;;;;;5095789;28;20179;-48
2023/07/30 05:39:47;;;;;;;6.60;4.50;;;18.00;99.90;;;;;;5095640;28;20172;-51
2023/07/30 05:42:12;;;;;;;8.27;4.30;;;18.00;99.90;;;;;;5095895;28;20574;-48
2023/07/30 05:44:38;;;;;;;10.67;4.83;;;18.00;99.90;;;;;;5095296;28;20254;-46
2023/07/30 05:47:03;;;;;;;8.23;4.87;;;18.00;99.90;;;;;;5097517;28;20199;-46
2023/07/30 05:49:29;;;;;;;10.93;4.87;;;18.10;99.90;;;;;;5098947;28;20641;-48
2023/07/30 05:51:55;;;;;;;12.83;5.80;;;18.10;99.90;;;;;;5098029;28;20179;-49
2023/07/30 05:54:20;;;;;;;8.73;5.20;;;18.10;99.90;;;;;;5099063;28;20262;-49
2023/07/30 05:56:46;;;;;;;9.70;5.80;;;18.10;99.90;;;;;;5098635;28;20210;-47
2023/07/30 05:59:12;;;;;;;11.13;5.13;;;18.10;99.90;;;;;;5099811;28;20255;-48
2023/07/30 06:01:39;;;;;;;13.07;6.70;;;18.00;99.90;;;;;;5099610;28;20628;-46
2023/07/30 06:04:05;;;;;;;9.00;5.30;;;18.00;99.90;;;;;;5099270;28;20212;-47
2023/07/30 06:06:32;;;;;;;11.00;4.93;;;18.00;99.90;;;;;;5099526;28;20198;-47
2023/07/30 06:08:58;;;;;;;15.93;6.23;;;18.00;99.90;;;;;;5099824;28;20183;-46
2023/07/30 06:11:25;;;;;;;8.93;4.37;;;18.00;99.90;;;;;;5099688;28;20198;-48
2023/07/30 06:13:50;;;;;;;14.80;5.87;;;18.10;99.90;;;;;;5098598;28;20465;-48
2023/07/30 06:16:17;;;;;;;9.40;5.77;;;18.10;99.90;;;;;;5098807;28;20212;-51
2023/07/30 06:18:43;;;;;;;11.10;5.93;;;18.10;99.90;;;;;;5098252;28;20172;-48
2023/07/30 06:21:09;;;;;;;14.43;5.83;;;18.20;99.90;;;;;;5099908;28;20179;-46
2023/07/30 06:23:35;;;;;;;12.43;5.53;;;18.20;99.90;;;;;;5099267;28;20743;-46
2023/07/30 06:26:08;;;;;;;9.30;4.87;;;18.30;99.90;;;;;;5099051;28;20287;-46
2023/07/30 06:28:33;;;;;;;9.77;5.70;;;18.40;99.90;;;;;;5099406;28;20586;-49
2023/07/30 06:31:04;;;;;;;13.27;5.57;;;18.50;99.90;;;;;;5099759;28;20184;-48
2023/07/30 06:33:31;;;;;;;12.43;5.00;;;18.50;99.90;;;;;;5099453;28;20544;-49
2023/07/30 06:35:57;;;;;;;9.47;4.07;;;18.50;99.90;;;;;;5098337;28;20480;-46
2023/07/30 06:38:22;;;;;;;11.83;5.30;;;18.60;99.90;;;;;;5098790;28;20587;-46
2023/07/30 06:40:49;;;;;;;11.90;5.03;;;18.60;99.90;;;;;;5098776;28;20254;-50
2023/07/30 06:43:15;;;;;;;11.47;5.50;;;18.70;99.90;;;;;;5098600;28;20192;-46
2023/07/30 06:45:42;;;;;;;13.13;5.83;;;18.70;99.90;;;;;;5098545;28;20274;-48
2023/07/30 06:48:09;;;;;;;12.30;4.77;;;18.70;99.90;;;;;;5098578;28;20183;-48
2023/07/30 06:50:35;;;;;;;13.70;6.50;;;18.70;99.90;;;;;;5098230;28;20215;-47
2023/07/30 06:53:02;;;;;;;13.70;5.60;;;18.70;99.90;;;;;;5098593;28;20192;-47
2023/07/30 06:55:27;;;;;;;15.13;6.43;;;18.80;99.90;;;;;;5098145;28;20214;-47
2023/07/30 06:57:53;;;;;;;14.10;5.97;;;18.80;99.90;;;;;;5099922;28;20274;-48
2023/07/30 07:00:21;;;;;;;16.03;7.63;;;18.80;99.90;;;;;;5098466;28;20180;-53
2023/07/30 07:02:48;;;;;;;15.47;6.20;;;18.70;99.90;;;;;;5098967;28;20191;-49
2023/07/30 07:05:15;;;;;;;19.13;8.17;;;18.70;99.90;;;;;;5097298;28;20172;-50
2023/07/30 07:07:40;;;;;;;15.57;8.07;;;18.70;99.90;;;;;;5097673;28;20165;-46
2023/07/30 07:10:07;;;;;;;21.60;7.57;;;18.60;99.90;;;;;;5096711;28;20247;-47
2023/07/30 07:12:33;;;;;;;24.80;8.03;;;18.40;99.90;;;;;;5096718;28;20579;-47
2023/07/30 07:15:01;;;;;;;16.43;8.43;;;18.40;99.90;;;;;;5096865;28;20186;-47
2023/07/30 07:17:27;;;;;;;17.30;9.33;;;18.40;99.90;;;;;;5094637;28;20168;-46
2023/07/30 07:19:53;;;;;;;18.63;8.17;;;18.40;99.90;;;;;;5096116;28;20274;-48
2023/07/30 07:22:20;;;;;;;20.50;7.70;;;18.50;99.90;;;;;;5096275;28;20172;-46
2023/07/30 07:24:46;;;;;;;16.17;7.93;;;18.60;99.90;;;;;;5095577;28;20169;-46
2023/07/30 07:27:13;;;;;;;15.97;9.23;;;18.70;99.90;;;;;;5094912;28;20676;-45
2023/07/30 07:29:39;;;;;;;20.67;8.90;;;18.70;99.90;;;;;;5095912;28;20173;-45
2023/07/30 07:32:05;;;;;;;18.67;9.07;;;18.70;99.90;;;;;;5096147;28;20279;-48
2023/07/30 07:34:30;;;;;;;16.97;8.83;;;18.70;99.90;;;;;;5096464;28;20257;-45
2023/07/30 07:36:56;;;;;;;20.33;7.87;;;18.60;99.90;;;;;;5095579;28;20640;-45
2023/07/30 07:39:22;;;;;;;18.93;8.87;;;18.60;99.90;;;;;;5095307;28;20176;-49
2023/07/30 07:41:48;;;;;;;22.63;9.33;;;18.60;99.90;;;;;;5096923;28;20168;-46
2023/07/30 07:44:13;;;;;;;19.33;7.43;;;18.60;99.90;;;;;;5097072;28;20168;-47
2023/07/30 07:46:40;;;;;;;19.33;7.50;;;18.60;99.90;;;;;;5096492;28;20160;-51
2023/07/30 07:49:08;;;;;;;16.53;7.33;;;18.60;99.90;;;;;;5095747;28;20586;-48
2023/07/30 07:51:34;;;;;;;17.23;7.50;;;18.70;99.90;;;;;;5096381;28;20164;-46
2023/07/30 07:53:59;;;;;;;17.67;5.43;;;18.80;99.90;;;;;;5095840;28;20183;-48
2023/07/30 07:56:25;;;;;;;20.03;8.23;;;18.90;99.90;;;;;;5095765;28;20249;-48
2023/07/30 07:58:51;;;;;;;18.93;7.77;;;19.00;99.90;;;;;;5096827;28;20165;-50
2023/07/30 08:01:16;;;;;;;14.57;6.33;;;19.00;99.90;;;;;;5097420;28;20497;-48
2023/07/30 08:03:42;;;;;;;14.20;6.90;;;19.10;99.90;;;;;;5096564;28;20236;-47
2023/07/30 08:06:08;;;;;;;16.53;6.63;;;19.10;99.90;;;;;;5096137;28;20472;-48
2023/07/30 08:08:33;;;;;;;20.03;6.17;;;19.10;99.90;;;;;;5095149;28;20172;-47
2023/07/30 08:11:08;;;;;;;19.20;6.77;;;19.20;99.90;;;;;;5095687;28;20298;-49
2023/07/30 08:13:34;;;;;;;14.37;6.67;;;19.10;99.90;;;;;;5094544;28;20225;-48
2023/07/30 08:16:00;;;;;;;18.77;6.33;;;19.10;99.90;;;;;;5094458;28;20763;-48
2023/07/30 08:18:27;;;;;;;18.67;5.50;;;19.20;99.90;;;;;;5093749;28;20574;-49
2023/07/30 08:20:53;;;;;;;16.50;5.90;;;19.30;99.90;;;;;;5094055;28;20180;-50
2023/07/30 08:23:19;;;;;;;13.40;5.77;;;19.40;99.90;;;;;;5094720;28;20514;-48
2023/07/30 08:25:44;;;;;;;15.17;5.60;;;19.40;99.90;;;;;;5094882;28;20210;-50
2023/07/30 08:28:13;;;;;;;17.53;6.53;;;19.40;99.90;;;;;;5094663;28;20430;-52
2023/07/30 08:30:39;;;;;;;14.40;6.80;;;19.50;99.90;;;;;;5094758;28;20176;-52
2023/07/30 08:33:05;;;;;;;9.77;5.80;;;19.50;99.90;;;;;;5095363;28;20172;-49
2023/07/30 08:35:31;;;;;;;14.33;4.80;;;19.50;99.90;;;;;;5094688;28;20696;-50
2023/07/30 08:37:56;;;;;;;14.10;5.67;;;19.50;99.90;;;;;;5094219;28;20179;-50
2023/07/30 08:40:25;;;;;;;14.00;5.57;;;19.50;99.90;;;;;;5095783;28;20173;-50
2023/07/30 08:42:51;;;;;;;20.97;5.73;;;19.60;99.90;;;;;;5095161;28;20168;-50
2023/07/30 08:45:17;;;;;;;12.17;4.93;;;19.50;99.90;;;;;;5093804;28;20603;-46
2023/07/30 08:47:47;;;;;;;11.43;4.30;;;19.50;99.90;;;;;;5094372;28;20194;-46
2023/07/30 08:50:13;;;;;;;15.50;4.60;;;19.50;99.90;;;;;;5095279;28;20176;-47
2023/07/30 08:52:40;;;;;;;11.53;4.20;;;19.60;99.90;;;;;;5095942;28;20559;-49
2023/07/30 08:55:07;;;;;;;9.20;3.80;;;19.70;99.90;;;;;;5095518;28;20211;-46
2023/07/30 08:57:33;;;;;;;12.17;3.50;;;19.80;99.90;;;;;;5095676;28;20292;-47
2023/07/30 09:00:04;;;;;;;12.00;4.33;;;19.80;99.90;;;;;;5094671;28;20179;-49
2023/07/30 09:03:00;;;;;;;11.97;4.43;;;19.90;99.90;;;;;;5095529;28;20199;-49
2023/07/30 09:05:29;;;;;;;13.53;4.53;;;19.90;99.90;;;;;;5089381;28;20508;-46
2023/07/30 09:07:57;;;;;;;14.27;4.57;;;19.80;99.90;;;;;;5093085;28;20176;-46
2023/07/30 09:10:26;;;;;;;8.83;3.20;;;19.80;99.90;;;;;;5092542;28;20275;-46
2023/07/30 09:12:57;;;;;;;11.10;3.73;;;19.80;99.90;;;;;;5075354;28;20568;-47
2023/07/30 09:15:34;;;;;;;11.10;3.67;;;19.90;99.90;;;;;;5069478;28;20446;-46
2023/07/30 09:18:01;;;;;;;11.43;3.37;;;20.00;99.90;;;;;;5071323;28;20160;-50
2023/07/30 09:20:36;;;;;;;12.13;4.60;;;20.00;99.90;;;;;;5070087;28;20180;-46
2023/07/30 09:23:03;;;;;;;10.40;3.77;;;20.00;99.90;;;;;;5070786;28;20175;-47
2023/07/30 09:25:28;;;;;;;10.33;3.57;;;20.10;99.90;;;;;;5055297;28;20181;-46
2023/07/30 09:27:56;;;;;;;10.03;3.57;;;20.10;99.90;;;;;;5056062;28;20200;-46
2023/07/30 09:30:24;;;;;;;15.33;3.83;;;20.10;99.90;;;;;;5055798;28;20175;-45
2023/07/30 09:32:57;;;;;;;10.43;4.43;;;20.10;99.90;;;;;;5072593;28;20223;-46
2023/07/30 09:35:26;;;;;;;14.33;4.13;;;20.10;99.90;;;;;;5071314;28;20220;-46
2023/07/30 09:38:00;;;;;;;7.40;3.27;;;20.10;99.90;;;;;;5071466;28;20173;-47
2023/07/30 09:40:36;;;;;;;12.60;3.73;;;20.20;99.90;;;;;;5071814;28;20592;-45
2023/07/30 09:43:03;;;;;;;12.17;3.57;;;20.20;99.90;;;;;;5065368;28;20264;-47
2023/07/30 09:45:35;;;;;;;17.40;3.93;;;20.20;99.90;;;;;;5051801;28;20165;-50
2023/07/30 09:48:03;;;;;;;12.30;3.80;;;20.20;99.90;;;;;;5068763;28;20592;-49
2023/07/30 09:50:30;;;;;;;9.70;2.97;;;20.30;99.90;;;;;;5053458;28;20165;-45
2023/07/30 09:53:00;;;;;;;12.87;3.40;;;20.20;99.90;;;;;;5054653;28;20173;-46
2023/07/30 09:55:26;;;;;;;9.80;3.27;;;20.30;99.90;;;;;;5055035;28;20197;-47
2023/07/30 09:57:52;;;;;;;10.87;2.97;;;20.20;99.90;;;;;;5067280;28;20169;-50
2023/07/30 10:00:17;;;;;;;13.03;3.57;;;20.30;99.90;;;;;;5073259;28;20173;-50
2023/07/30 10:02:47;;;;;;;8.60;3.70;;;20.30;99.90;;;;;;5072488;28;20815;-48
2023/07/30 10:05:22;;;;;;;8.27;3.43;;;20.30;99.90;;;;;;5072238;28;20233;-45
2023/07/30 10:08:24;;;;;;;8.70;3.20;;;20.20;99.90;;;;;;5074213;28;20180;-47
2023/07/30 10:10:51;;;;;;;8.50;2.93;;;20.30;99.90;;;;;;5041347;28;20267;-46
2023/07/30 10:13:18;;;;;;;9.90;3.73;;;20.30;99.90;;;;;;5073917;28;20179;-48
2023/07/30 10:15:44;;;;;;;7.17;3.23;;;20.30;99.90;;;;;;5073573;28;20290;-48
2023/07/30 10:18:10;;;;;;;10.37;3.33;;;20.30;99.90;;;;;;5073148;28;20180;-50
2023/07/30 10:20:36;;;;;;;9.47;3.53;;;20.30;99.90;;;;;;5074280;28;20161;-48
2023/07/30 10:23:04;;;;;;;10.43;3.47;;;20.40;99.90;;;;;;5073483;28;20187;-46
2023/07/30 10:25:42;;;;;;;15.70;3.60;;;20.40;99.90;;;;;;5072357;28;20301;-46
2023/07/30 10:28:08;;;;;;;6.23;2.80;;;20.50;99.90;;;;;;5067864;28;20168;-48
2023/07/30 10:30:33;;;;;;;10.87;3.93;;;20.50;99.90;;;;;;5070149;28;20184;-46
2023/07/30 10:33:02;;;;;;;9.17;2.80;;;20.60;99.90;;;;;;5072396;28;20173;-49
2023/07/30 10:35:46;;;;;;;8.83;2.97;;;20.60;99.90;;;;;;5083853;28;20207;-50
2023/07/30 10:38:30;;;;;;;10.00;3.40;;;20.60;99.90;;;;;;5075288;28;20168;-49
2023/07/30 10:41:18;;;;;;;12.00;3.23;;;20.80;99.90;;;;;;5094052;28;20628;-45
2023/07/30 10:43:48;;;;;;;11.93;3.20;;;20.90;99.90;;;;;;5096200;28;20164;-47
2023/07/30 10:46:15;;;;;;;8.83;2.93;;;20.90;99.90;;;;;;5078127;28;20180;-49
2023/07/30 10:48:43;;;;;;;10.93;3.87;;;20.90;99.90;;;;;;5077725;28;20725;-48
2023/07/30 10:51:15;;;;;;;9.03;2.53;;;20.90;99.90;;;;;;5095726;28;20279;-50
2023/07/30 10:53:48;;;;;;;5.60;2.50;;;20.80;99.90;;;;;;5095189;28;20195;-49
2023/07/30 10:56:21;;;;;;;7.43;2.60;;;20.80;99.90;;;;;;5077121;28;20207;-47
2023/07/30 10:58:52;;;;;;;9.27;2.97;;;20.80;99.90;;;;;;5077072;28;20168;-49
2023/07/30 11:01:17;;;;;;;8.17;2.63;;;20.70;99.90;;;;;;5076381;28;20424;-51
2023/07/30 11:03:43;;;;;;;7.87;2.47;;;20.70;99.90;;;;;;5077020;28;20619;-49
2023/07/30 11:06:09;;;;;;;6.80;2.90;;;20.80;99.90;;;;;;5095729;28;20195;-49
2023/07/30 11:08:40;;;;;;;6.97;2.70;;;20.80;99.90;;;;;;5078370;28;20172;-46
2023/07/30 11:11:07;;;;;;;9.10;2.23;;;20.80;99.90;;;;;;5078180;28;20195;-48
2023/07/30 11:13:41;;;;;;;8.33;2.60;;;20.70;99.90;;;;;;5077130;28;20207;-49
2023/07/30 11:16:08;;;;;;;12.17;2.63;;;20.60;99.90;;;;;;5093981;28;20219;-50
2023/07/30 11:18:35;;;;;;;7.97;2.43;;;20.70;99.90;;;;;;5076473;28;20172;-50
2023/07/30 11:21:12;;;;;;;7.67;3.10;;;20.80;99.90;;;;;;5076211;28;20225;-51
2023/07/30 11:23:44;;;;;;;5.93;2.20;;;20.80;99.90;;;;;;5075043;28;20179;-46
2023/07/30 11:26:15;;;;;;;6.63;2.60;;;20.90;99.90;;;;;;5075763;28;20180;-45
2023/07/30 11:28:42;;;;;;;8.93;2.40;;;21.00;99.90;;;;;;5075065;28;20176;-49
2023/07/30 11:31:13;;;;;;;5.00;2.10;;;21.00;99.90;;;;;;5074992;28;20796;-47
2023/07/30 11:33:43;;;;;;;8.97;2.43;;;21.20;99.90;;;;;;5076244;28;20179;-46
2023/07/30 11:36:15;;;;;;;8.63;2.93;;;21.40;99.90;;;;;;5072448;28;20232;-50
2023/07/30 11:38:42;;;;;;;5.30;2.30;;;21.40;99.90;;;;;;5072981;28;20235;-48
2023/07/30 11:41:10;;;;;;;10.10;2.73;;;21.40;99.90;;;;;;5073129;28;20271;-46
2023/07/30 11:43:38;;;;;;;8.43;2.27;;;21.50;99.90;;;;;;5056558;28;20169;-46
2023/07/30 11:46:16;;;;;;;7.40;2.30;;;21.70;99.90;;;;;;5072796;28;20661;-50
2023/07/30 11:48:48;;;;;;;7.47;2.60;;;22.00;99.90;;;;;;5054199;28;20172;-48
2023/07/30 11:51:29;;;;;;;7.30;2.53;;;22.60;99.90;;;;;;5071158;28;20169;-48
2023/07/30 11:53:54;;;;;;;5.77;2.43;;;22.70;99.90;;;;;;5071805;28;20192;-50
2023/07/30 11:56:21;;;;;;;6.63;1.87;;;22.70;99.90;;;;;;5071022;28;20201;-49
2023/07/30 11:58:47;;;;;;;8.80;2.60;;;22.80;99.90;;;;;;5070666;28;20221;-51
2023/07/30 12:01:14;;;;;;;8.02;2.15;;;23.00;99.90;;;;;;5073604;28;20226;-46
2023/07/30 12:03:43;;;;;;;8.35;2.50;;;23.30;99.90;;;;;;5074150;28;20181;-49
2023/07/30 12:06:10;;;;;;;8.57;2.20;;;23.60;99.90;;;;;;5074045;28;20260;-53
2023/07/30 12:08:39;;;;;;;4.45;1.90;;;24.10;99.90;;;;;;5072569;28;20558;-52
2023/07/30 12:11:09;;;;;;;4.68;2.10;;;24.30;99.90;;;;;;5073038;28;20184;-51
2023/07/30 12:13:45;;;;;;;5.93;2.38;;;24.10;99.90;;;;;;5075349;28;20620;-50
2023/07/30 12:16:13;;;;;;;6.90;2.60;;;24.00;99.90;;;;;;5074622;28;20953;-48
2023/07/30 12:18:40;;;;;;;8.68;2.08;;;24.10;99.90;;;;;;5075481;28;20573;-46
2023/07/30 12:21:08;;;;;;;5.85;1.92;;;24.10;99.90;;;;;;5073436;28;20591;-47
2023/07/30 12:23:34;;;;;;;7.95;2.85;;;24.00;99.90;;;;;;5073457;28;20496;-46
2023/07/30 12:26:00;;;;;;;4.85;1.92;;;23.80;99.90;;;;;;5072751;28;20169;-47
2023/07/30 12:28:26;;;;;;;3.90;1.52;;;23.40;99.90;;;;;;5071776;28;20169;-47
2023/07/30 12:30:52;;;;;;;5.55;2.05;;;23.10;99.90;;;;;;5070414;28;20237;-51
2023/07/30 12:33:18;;;;;;;4.50;1.93;;;23.00;99.90;;;;;;5071883;28;20168;-48
2023/07/30 12:35:44;;;;;;;3.55;1.67;;;23.30;99.90;;;;;;5071124;28;20223;-53
2023/07/30 12:38:10;;;;;;;6.50;1.83;;;23.40;99.90;;;;;;5072154;28;20161;-48
2023/07/30 12:40:35;;;;;;;8.85;1.98;;;23.60;99.90;;;;;;5072658;28;20177;-48
2023/07/30 12:43:03;;;;;;;7.35;2.65;;;23.80;99.90;;;;;;5073048;28;20164;-50